sensor_id;sensor_type;location;lat;lon;timestamp;P1;durP1;ratioP1;P2;durP2;ratioP2
30307;SDS011;17114;52.314;8.910;2023-04-01T00:01:19;4.45;;;1.77;;
30307;SDS011;17114;52.314;8.910;2023-04-01T00:03:46;4.78;;;1.90;;
30307;SDS011;17114;52.314;8.910;2023-04-01T00:06:14;5.95;;;2.20;;
30307;SDS011;17114;52.314;8.910;2023-04-01T00:08:43;5.38;;;2.30;;
30307;SDS011;17114;52.314;8.910;2023-04-01T00:11:11;5.75;;;2.10;;
30307;SDS011;17114;52.314;8.910;2023-04-01T00:13:38;3.55;;;1.92;;
30307;SDS011;17114;52.314;8.910;2023-04-01T00:16:05;4.05;;;2.33;;
30307;SDS011;17114;52.314;8.910;2023-04-01T00:18:46;4.80;;;2.30;;
30307;SDS011;17114;52.314;8.910;2023-04-01T00:21:14;6.03;;;2.78;;
30307;SDS011;17114;52.314;8.910;2023-04-01T00:23:42;6.50;;;2.63;;
30307;SDS011;17114;52.314;8.910;2023-04-01T00:26:09;5.03;;;2.40;;
30307;SDS011;17114;52.314;8.910;2023-04-01T00:28:38;6.72;;;2.92;;
30307;SDS011;17114;52.314;8.910;2023-04-01T00:31:07;6.97;;;2.67;;
30307;SDS011;17114;52.314;8.910;2023-04-01T00:33:35;5.32;;;2.60;;
30307;SDS011;17114;52.314;8.910;2023-04-01T00:36:08;11.05;;;3.08;;
30307;SDS011;17114;52.314;8.910;2023-04-01T00:38:37;8.55;;;2.80;;
30307;SDS011;17114;52.314;8.910;2023-04-01T00:41:05;8.43;;;2.92;;
30307;SDS011;17114;52.314;8.910;2023-04-01T00:43:32;3.58;;;2.60;;
30307;SDS011;17114;52.314;8.910;2023-04-01T00:45:59;5.22;;;2.60;;
30307;SDS011;17114;52.314;8.910;2023-04-01T00:48:30;8.25;;;2.83;;
30307;SDS011;17114;52.314;8.910;2023-04-01T00:51:04;6.90;;;2.65;;
30307;SDS011;17114;52.314;8.910;2023-04-01T00:53:34;5.90;;;2.47;;
30307;SDS011;17114;52.314;8.910;2023-04-01T00:56:04;4.45;;;2.53;;
30307;SDS011;17114;52.314;8.910;2023-04-01T00:58:38;7.32;;;2.38;;
30307;SDS011;17114;52.314;8.910;2023-04-01T01:01:09;5.55;;;2.13;;
30307;SDS011;17114;52.314;8.910;2023-04-01T01:03:36;7.55;;;2.42;;
30307;SDS011;17114;52.314;8.910;2023-04-01T01:06:11;6.65;;;2.25;;
30307;SDS011;17114;52.314;8.910;2023-04-01T01:09:11;4.55;;;2.40;;
30307;SDS011;17114;52.314;8.910;2023-04-01T01:11:54;5.95;;;2.17;;
30307;SDS011;17114;52.314;8.910;2023-04-01T01:17:06;3.83;;;1.90;;
30307;SDS011;17114;52.314;8.910;2023-04-01T01:22:42;3.63;;;1.60;;
30307;SDS011;17114;52.314;8.910;2023-04-01T01:25:38;4.70;;;1.60;;
30307;SDS011;17114;52.314;8.910;2023-04-01T01:36:17;5.32;;;1.83;;
30307;SDS011;17114;52.314;8.910;2023-04-01T01:38:48;2.95;;;1.30;;
30307;SDS011;17114;52.314;8.910;2023-04-01T01:41:16;4.53;;;1.55;;
30307;SDS011;17114;52.314;8.910;2023-04-01T01:43:45;5.65;;;1.65;;
30307;SDS011;17114;52.314;8.910;2023-04-01T01:46:17;3.03;;;1.42;;
30307;SDS011;17114;52.314;8.910;2023-04-01T01:48:47;3.85;;;1.30;;
30307;SDS011;17114;52.314;8.910;2023-04-01T01:51:17;4.15;;;1.80;;
30307;SDS011;17114;52.314;8.910;2023-04-01T01:53:45;4.13;;;1.50;;
30307;SDS011;17114;52.314;8.910;2023-04-01T01:56:12;3.85;;;1.30;;
30307;SDS011;17114;52.314;8.910;2023-04-01T01:58:42;5.88;;;1.30;;
30307;SDS011;17114;52.314;8.910;2023-04-01T02:01:12;4.43;;;1.40;;
30307;SDS011;17114;52.314;8.910;2023-04-01T02:03:42;5.85;;;1.80;;
30307;SDS011;17114;52.314;8.910;2023-04-01T02:06:11;3.95;;;1.30;;
30307;SDS011;17114;52.314;8.910;2023-04-01T02:08:50;4.97;;;1.10;;
30307;SDS011;17114;52.314;8.910;2023-04-01T02:11:24;5.30;;;1.40;;
30307;SDS011;17114;52.314;8.910;2023-04-01T02:14:20;4.55;;;1.33;;
30307;SDS011;17114;52.314;8.910;2023-04-01T02:17:04;2.53;;;1.13;;
30307;SDS011;17114;52.314;8.910;2023-04-01T02:19:39;2.72;;;1.55;;
30307;SDS011;17114;52.314;8.910;2023-04-01T02:22:27;3.58;;;1.30;;
30307;SDS011;17114;52.314;8.910;2023-04-01T02:24:59;3.55;;;1.10;;
30307;SDS011;17114;52.314;8.910;2023-04-01T02:27:30;0.98;;;0.80;;
30307;SDS011;17114;52.314;8.910;2023-04-01T02:29:58;5.13;;;1.85;;
30307;SDS011;17114;52.314;8.910;2023-04-01T02:32:25;5.85;;;1.15;;
30307;SDS011;17114;52.314;8.910;2023-04-01T02:34:56;3.97;;;1.27;;
30307;SDS011;17114;52.314;8.910;2023-04-01T02:37:23;3.63;;;1.20;;
30307;SDS011;17114;52.314;8.910;2023-04-01T02:39:50;5.47;;;1.50;;
30307;SDS011;17114;52.314;8.910;2023-04-01T02:42:17;4.30;;;1.73;;
30307;SDS011;17114;52.314;8.910;2023-04-01T02:44:44;4.32;;;1.55;;
30307;SDS011;17114;52.314;8.910;2023-04-01T02:47:11;5.00;;;1.30;;
30307;SDS011;17114;52.314;8.910;2023-04-01T02:49:39;2.08;;;1.08;;
30307;SDS011;17114;52.314;8.910;2023-04-01T02:52:06;5.03;;;1.75;;
30307;SDS011;17114;52.314;8.910;2023-04-01T02:54:33;3.10;;;1.10;;
30307;SDS011;17114;52.314;8.910;2023-04-01T02:56:59;2.40;;;1.08;;
30307;SDS011;17114;52.314;8.910;2023-04-01T02:59:26;1.95;;;0.90;;
30307;SDS011;17114;52.314;8.910;2023-04-01T03:01:53;2.15;;;1.05;;
30307;SDS011;17114;52.314;8.910;2023-04-01T03:04:20;2.03;;;0.98;;
30307;SDS011;17114;52.314;8.910;2023-04-01T03:06:47;5.38;;;1.15;;
30307;SDS011;17114;52.314;8.910;2023-04-01T03:09:14;2.45;;;1.27;;
30307;SDS011;17114;52.314;8.910;2023-04-01T03:11:41;3.60;;;1.10;;
30307;SDS011;17114;52.314;8.910;2023-04-01T03:14:08;2.17;;;1.08;;
30307;SDS011;17114;52.314;8.910;2023-04-01T03:16:34;4.82;;;1.20;;
30307;SDS011;17114;52.314;8.910;2023-04-01T03:19:01;3.17;;;1.00;;
30307;SDS011;17114;52.314;8.910;2023-04-01T03:21:28;2.55;;;0.90;;
30307;SDS011;17114;52.314;8.910;2023-04-01T03:23:55;2.20;;;0.77;;
30307;SDS011;17114;52.314;8.910;2023-04-01T03:26:22;4.38;;;1.10;;
30307;SDS011;17114;52.314;8.910;2023-04-01T03:28:49;2.55;;;0.90;;
30307;SDS011;17114;52.314;8.910;2023-04-01T03:31:16;3.10;;;0.80;;
30307;SDS011;17114;52.314;8.910;2023-04-01T03:33:42;1.13;;;0.70;;
30307;SDS011;17114;52.314;8.910;2023-04-01T03:36:09;2.95;;;1.00;;
30307;SDS011;17114;52.314;8.910;2023-04-01T03:38:41;2.78;;;0.95;;
30307;SDS011;17114;52.314;8.910;2023-04-01T03:41:13;1.27;;;0.90;;
30307;SDS011;17114;52.314;8.910;2023-04-01T03:43:41;4.65;;;0.93;;
30307;SDS011;17114;52.314;8.910;2023-04-01T03:46:08;2.63;;;1.00;;
30307;SDS011;17114;52.314;8.910;2023-04-01T03:48:35;2.65;;;0.90;;
30307;SDS011;17114;52.314;8.910;2023-04-01T03:51:06;1.92;;;0.68;;
30307;SDS011;17114;52.314;8.910;2023-04-01T03:53:33;2.00;;;1.10;;
30307;SDS011;17114;52.314;8.910;2023-04-01T03:56:07;1.20;;;0.73;;
30307;SDS011;17114;52.314;8.910;2023-04-01T03:58:34;1.38;;;0.80;;
30307;SDS011;17114;52.314;8.910;2023-04-01T04:01:02;1.92;;;0.75;;
30307;SDS011;17114;52.314;8.910;2023-04-01T04:03:29;2.88;;;0.80;;
30307;SDS011;17114;52.314;8.910;2023-04-01T04:05:56;2.25;;;0.70;;
30307;SDS011;17114;52.314;8.910;2023-04-01T04:08:23;5.03;;;0.90;;
30307;SDS011;17114;52.314;8.910;2023-04-01T04:10:56;2.15;;;0.70;;
30307;SDS011;17114;52.314;8.910;2023-04-01T04:13:24;3.63;;;1.20;;
30307;SDS011;17114;52.314;8.910;2023-04-01T04:15:50;3.30;;;0.93;;
30307;SDS011;17114;52.314;8.910;2023-04-01T04:18:17;3.92;;;0.98;;
30307;SDS011;17114;52.314;8.910;2023-04-01T04:20:45;4.68;;;1.80;;
30307;SDS011;17114;52.314;8.910;2023-04-01T04:23:14;3.42;;;1.08;;
30307;SDS011;17114;52.314;8.910;2023-04-01T04:25:41;4.53;;;0.90;;
30307;SDS011;17114;52.314;8.910;2023-04-01T04:28:18;1.50;;;0.80;;
30307;SDS011;17114;52.314;8.910;2023-04-01T04:30:45;2.83;;;0.90;;
30307;SDS011;17114;52.314;8.910;2023-04-01T04:33:12;2.92;;;0.82;;
30307;SDS011;17114;52.314;8.910;2023-04-01T04:35:39;3.20;;;0.80;;
30307;SDS011;17114;52.314;8.910;2023-04-01T04:38:05;2.60;;;0.60;;
30307;SDS011;17114;52.314;8.910;2023-04-01T04:40:32;2.42;;;0.63;;
30307;SDS011;17114;52.314;8.910;2023-04-01T04:42:59;2.42;;;0.75;;
30307;SDS011;17114;52.314;8.910;2023-04-01T04:45:26;4.35;;;0.90;;
30307;SDS011;17114;52.314;8.910;2023-04-01T04:47:53;4.53;;;1.00;;
30307;SDS011;17114;52.314;8.910;2023-04-01T04:50:20;3.90;;;0.90;;
30307;SDS011;17114;52.314;8.910;2023-04-01T04:52:46;5.07;;;1.25;;
30307;SDS011;17114;52.314;8.910;2023-04-01T04:55:13;2.58;;;0.80;;
30307;SDS011;17114;52.314;8.910;2023-04-01T04:57:41;1.13;;;0.65;;
30307;SDS011;17114;52.314;8.910;2023-04-01T05:00:08;2.85;;;0.90;;
30307;SDS011;17114;52.314;8.910;2023-04-01T05:02:38;3.60;;;0.70;;
30307;SDS011;17114;52.314;8.910;2023-04-01T05:05:06;0.80;;;0.60;;
30307;SDS011;17114;52.314;8.910;2023-04-01T05:07:33;2.75;;;0.90;;
30307;SDS011;17114;52.314;8.910;2023-04-01T05:10:00;3.03;;;1.08;;
30307;SDS011;17114;52.314;8.910;2023-04-01T05:12:27;1.60;;;0.60;;
30307;SDS011;17114;52.314;8.910;2023-04-01T05:14:53;1.55;;;0.63;;
30307;SDS011;17114;52.314;8.910;2023-04-01T05:17:20;1.95;;;0.73;;
30307;SDS011;17114;52.314;8.910;2023-04-01T05:19:47;2.85;;;0.80;;
30307;SDS011;17114;52.314;8.910;2023-04-01T05:22:14;2.53;;;0.80;;
30307;SDS011;17114;52.314;8.910;2023-04-01T05:24:41;3.17;;;1.38;;
30307;SDS011;17114;52.314;8.910;2023-04-01T05:27:08;2.63;;;0.75;;
30307;SDS011;17114;52.314;8.910;2023-04-01T05:29:35;1.85;;;0.70;;
30307;SDS011;17114;52.314;8.910;2023-04-01T05:32:02;2.53;;;0.80;;
30307;SDS011;17114;52.314;8.910;2023-04-01T05:34:29;1.27;;;0.70;;
30307;SDS011;17114;52.314;8.910;2023-04-01T05:36:55;2.78;;;0.90;;
30307;SDS011;17114;52.314;8.910;2023-04-01T05:39:22;1.77;;;0.75;;
30307;SDS011;17114;52.314;8.910;2023-04-01T05:41:49;1.80;;;0.93;;
30307;SDS011;17114;52.314;8.910;2023-04-01T05:44:16;2.83;;;1.02;;
30307;SDS011;17114;52.314;8.910;2023-04-01T05:46:43;1.95;;;0.90;;
30307;SDS011;17114;52.314;8.910;2023-04-01T05:49:10;5.10;;;0.70;;
30307;SDS011;17114;52.314;8.910;2023-04-01T05:51:36;3.03;;;1.50;;
30307;SDS011;17114;52.314;8.910;2023-04-01T05:54:04;3.60;;;1.30;;
30307;SDS011;17114;52.314;8.910;2023-04-01T05:56:31;2.20;;;1.08;;
30307;SDS011;17114;52.314;8.910;2023-04-01T05:58:58;1.73;;;0.90;;
30307;SDS011;17114;52.314;8.910;2023-04-01T06:01:25;2.25;;;0.70;;
30307;SDS011;17114;52.314;8.910;2023-04-01T06:03:52;3.00;;;0.80;;
30307;SDS011;17114;52.314;8.910;2023-04-01T06:06:29;2.88;;;0.80;;
30307;SDS011;17114;52.314;8.910;2023-04-01T06:08:59;1.63;;;0.70;;
30307;SDS011;17114;52.314;8.910;2023-04-01T06:17:07;0.85;;;0.50;;
30307;SDS011;17114;52.314;8.910;2023-04-01T06:27:59;1.50;;;1.10;;
30307;SDS011;17114;52.314;8.910;2023-04-01T06:30:52;1.33;;;0.52;;
30307;SDS011;17114;52.314;8.910;2023-04-01T06:44:59;1.55;;;0.60;;
30307;SDS011;17114;52.314;8.910;2023-04-01T06:53:08;3.55;;;0.75;;
30307;SDS011;17114;52.314;8.910;2023-04-01T06:55:42;0.75;;;0.52;;
30307;SDS011;17114;52.314;8.910;2023-04-01T06:58:16;1.98;;;0.60;;
30307;SDS011;17114;52.314;8.910;2023-04-01T07:01:00;3.67;;;0.63;;
30307;SDS011;17114;52.314;8.910;2023-04-01T07:03:35;1.75;;;0.70;;
30307;SDS011;17114;52.314;8.910;2023-04-01T07:06:06;1.23;;;0.75;;
30307;SDS011;17114;52.314;8.910;2023-04-01T07:08:38;1.45;;;0.77;;
30307;SDS011;17114;52.314;8.910;2023-04-01T07:11:09;1.15;;;0.70;;
30307;SDS011;17114;52.314;8.910;2023-04-01T07:16:15;0.85;;;0.70;;
30307;SDS011;17114;52.314;8.910;2023-04-01T07:19:06;3.90;;;2.22;;
30307;SDS011;17114;52.314;8.910;2023-04-01T07:21:45;2.75;;;1.63;;
30307;SDS011;17114;52.314;8.910;2023-04-01T07:24:20;1.35;;;0.80;;
30307;SDS011;17114;52.314;8.910;2023-04-01T07:29:31;1.65;;;0.77;;
30307;SDS011;17114;52.314;8.910;2023-04-01T07:37:35;0.82;;;0.70;;
30307;SDS011;17114;52.314;8.910;2023-04-01T07:46:08;2.75;;;0.80;;
30307;SDS011;17114;52.314;8.910;2023-04-01T07:53:49;2.10;;;1.00;;
30307;SDS011;17114;52.314;8.910;2023-04-01T08:02:44;2.22;;;1.08;;
30307;SDS011;17114;52.314;8.910;2023-04-01T08:11:01;2.72;;;1.23;;
30307;SDS011;17114;52.314;8.910;2023-04-01T08:16:46;0.98;;;0.65;;
30307;SDS011;17114;52.314;8.910;2023-04-01T08:19:55;2.90;;;0.77;;
30307;SDS011;17114;52.314;8.910;2023-04-01T08:22:27;5.65;;;1.80;;
30307;SDS011;17114;52.314;8.910;2023-04-01T08:25:00;2.80;;;0.68;;
30307;SDS011;17114;52.314;8.910;2023-04-01T08:30:20;3.35;;;1.48;;
30307;SDS011;17114;52.314;8.910;2023-04-01T08:35:46;2.03;;;0.90;;
30307;SDS011;17114;52.314;8.910;2023-04-01T08:38:21;2.47;;;1.13;;
30307;SDS011;17114;52.314;8.910;2023-04-01T08:52:58;0.63;;;0.63;;
30307;SDS011;17114;52.314;8.910;2023-04-01T08:55:47;1.42;;;1.00;;
30307;SDS011;17114;52.314;8.910;2023-04-01T09:12:35;2.40;;;0.88;;
30307;SDS011;17114;52.314;8.910;2023-04-01T09:17:59;3.17;;;1.55;;
30307;SDS011;17114;52.314;8.910;2023-04-01T09:35:05;1.92;;;1.13;;
30307;SDS011;17114;52.314;8.910;2023-04-01T09:37:53;2.05;;;1.10;;
30307;SDS011;17114;52.314;8.910;2023-04-01T09:56:59;2.63;;;1.08;;
30307;SDS011;17114;52.314;8.910;2023-04-01T10:03:00;1.15;;;0.95;;
30307;SDS011;17114;52.314;8.910;2023-04-01T10:11:44;1.67;;;0.85;;
30307;SDS011;17114;52.314;8.910;2023-04-01T10:38:16;5.38;;;1.50;;
30307;SDS011;17114;52.314;8.910;2023-04-01T10:46:49;2.88;;;2.40;;
30307;SDS011;17114;52.314;8.910;2023-04-01T11:21:44;3.08;;;1.02;;
30307;SDS011;17114;52.314;8.910;2023-04-01T11:24:43;1.73;;;1.20;;
30307;SDS011;17114;52.314;8.910;2023-04-01T11:27:57;2.20;;;1.20;;
30307;SDS011;17114;52.314;8.910;2023-04-01T11:33:05;2.45;;;1.40;;
30307;SDS011;17114;52.314;8.910;2023-04-01T11:36:11;3.50;;;1.50;;
30307;SDS011;17114;52.314;8.910;2023-04-01T11:44:21;1.50;;;1.35;;
30307;SDS011;17114;52.314;8.910;2023-04-01T11:46:52;1.00;;;0.90;;
30307;SDS011;17114;52.314;8.910;2023-04-01T12:01:24;1.27;;;1.00;;
30307;SDS011;17114;52.314;8.910;2023-04-01T12:07:49;1.38;;;0.65;;
30307;SDS011;17114;52.314;8.910;2023-04-01T12:13:38;2.47;;;1.60;;
30307;SDS011;17114;52.314;8.910;2023-04-01T12:35:13;1.50;;;1.40;;
30307;SDS011;17114;52.314;8.910;2023-04-01T13:11:39;2.25;;;1.30;;
30307;SDS011;17114;52.314;8.910;2023-04-01T13:20:28;3.38;;;1.65;;
30307;SDS011;17114;52.314;8.910;2023-04-01T13:36:29;4.10;;;1.70;;
30307;SDS011;17114;52.314;8.910;2023-04-01T13:41:48;2.97;;;1.20;;
30307;SDS011;17114;52.314;8.910;2023-04-01T13:44:57;4.10;;;1.30;;
30307;SDS011;17114;52.314;8.910;2023-04-01T13:47:34;3.13;;;1.55;;
30307;SDS011;17114;52.314;8.910;2023-04-01T14:04:03;1.83;;;1.45;;
30307;SDS011;17114;52.314;8.910;2023-04-01T14:29:46;3.28;;;1.73;;
30307;SDS011;17114;52.314;8.910;2023-04-01T14:32:48;5.00;;;1.70;;
30307;SDS011;17114;52.314;8.910;2023-04-01T14:35:41;0.98;;;0.95;;
30307;SDS011;17114;52.314;8.910;2023-04-01T14:43:55;2.67;;;0.90;;
30307;SDS011;17114;52.314;8.910;2023-04-01T14:49:43;2.72;;;1.30;;
30307;SDS011;17114;52.314;8.910;2023-04-01T14:52:22;2.45;;;1.63;;
30307;SDS011;17114;52.314;8.910;2023-04-01T14:54:55;2.83;;;1.85;;
30307;SDS011;17114;52.314;8.910;2023-04-01T14:57:25;3.05;;;2.03;;
30307;SDS011;17114;52.314;8.910;2023-04-01T15:00:05;1.17;;;1.08;;
30307;SDS011;17114;52.314;8.910;2023-04-01T15:28:15;2.97;;;1.63;;
30307;SDS011;17114;52.314;8.910;2023-04-01T15:31:25;2.85;;;2.38;;
30307;SDS011;17114;52.314;8.910;2023-04-01T15:39:47;3.20;;;2.90;;
30307;SDS011;17114;52.314;8.910;2023-04-01T15:45:35;3.53;;;2.58;;
30307;SDS011;17114;52.314;8.910;2023-04-01T15:48:31;3.47;;;2.75;;
30307;SDS011;17114;52.314;8.910;2023-04-01T15:54:06;3.45;;;2.70;;
30307;SDS011;17114;52.314;8.910;2023-04-01T15:59:29;3.05;;;2.75;;
30307;SDS011;17114;52.314;8.910;2023-04-01T16:02:22;2.85;;;2.60;;
30307;SDS011;17114;52.314;8.910;2023-04-01T16:10:13;3.10;;;2.65;;
30307;SDS011;17114;52.314;8.910;2023-04-01T16:21:52;3.15;;;2.42;;
30307;SDS011;17114;52.314;8.910;2023-04-01T16:24:32;2.33;;;2.13;;
30307;SDS011;17114;52.314;8.910;2023-04-01T16:43:28;1.90;;;1.67;;
30307;SDS011;17114;52.314;8.910;2023-04-01T16:59:37;2.20;;;1.90;;
30307;SDS011;17114;52.314;8.910;2023-04-01T17:02:26;1.83;;;1.63;;
30307;SDS011;17114;52.314;8.910;2023-04-01T17:05:04;2.30;;;2.10;;
30307;SDS011;17114;52.314;8.910;2023-04-01T17:07:49;2.45;;;2.00;;
30307;SDS011;17114;52.314;8.910;2023-04-01T17:10:49;2.42;;;2.00;;
30307;SDS011;17114;52.314;8.910;2023-04-01T17:35:51;1.55;;;1.45;;
30307;SDS011;17114;52.314;8.910;2023-04-01T17:41:28;2.03;;;1.80;;
30307;SDS011;17114;52.314;8.910;2023-04-01T17:44:01;2.10;;;1.90;;
30307;SDS011;17114;52.314;8.910;2023-04-01T17:49:47;2.75;;;2.30;;
30307;SDS011;17114;52.314;8.910;2023-04-01T17:58:03;4.95;;;3.28;;
30307;SDS011;17114;52.314;8.910;2023-04-01T18:00:38;1.70;;;1.30;;
30307;SDS011;17114;52.314;8.910;2023-04-01T18:06:17;1.80;;;1.38;;
30307;SDS011;17114;52.314;8.910;2023-04-01T18:17:21;2.55;;;1.75;;
30307;SDS011;17114;52.314;8.910;2023-04-01T18:19:56;3.45;;;2.53;;
30307;SDS011;17114;52.314;8.910;2023-04-01T18:22:47;3.53;;;2.03;;
30307;SDS011;17114;52.314;8.910;2023-04-01T18:25:33;2.42;;;1.70;;
30307;SDS011;17114;52.314;8.910;2023-04-01T18:28:21;2.25;;;1.88;;
30307;SDS011;17114;52.314;8.910;2023-04-01T18:30:51;3.30;;;1.70;;
30307;SDS011;17114;52.314;8.910;2023-04-01T18:33:34;3.03;;;2.30;;
30307;SDS011;17114;52.314;8.910;2023-04-01T18:39:23;3.33;;;2.40;;
30307;SDS011;17114;52.314;8.910;2023-04-01T18:42:08;5.97;;;2.55;;
30307;SDS011;17114;52.314;8.910;2023-04-01T18:47:48;3.95;;;2.78;;
30307;SDS011;17114;52.314;8.910;2023-04-01T18:53:09;2.50;;;1.90;;
30307;SDS011;17114;52.314;8.910;2023-04-01T18:56:01;4.07;;;1.90;;
30307;SDS011;17114;52.314;8.910;2023-04-01T18:58:44;1.95;;;1.75;;
30307;SDS011;17114;52.314;8.910;2023-04-01T19:08:59;2.17;;;1.85;;
30307;SDS011;17114;52.314;8.910;2023-04-01T19:14:51;2.95;;;2.10;;
30307;SDS011;17114;52.314;8.910;2023-04-01T19:26:32;3.35;;;2.40;;
30307;SDS011;17114;52.314;8.910;2023-04-01T19:32:07;2.55;;;2.00;;
30307;SDS011;17114;52.314;8.910;2023-04-01T19:37:39;13.98;;;2.35;;
30307;SDS011;17114;52.314;8.910;2023-04-01T19:51:19;3.22;;;2.30;;
30307;SDS011;17114;52.314;8.910;2023-04-01T19:56:52;3.15;;;2.40;;
30307;SDS011;17114;52.314;8.910;2023-04-01T19:59:31;3.80;;;2.35;;
30307;SDS011;17114;52.314;8.910;2023-04-01T20:05:03;3.10;;;2.35;;
30307;SDS011;17114;52.314;8.910;2023-04-01T20:07:46;3.83;;;2.22;;
30307;SDS011;17114;52.314;8.910;2023-04-01T20:10:23;4.70;;;2.80;;
30307;SDS011;17114;52.314;8.910;2023-04-01T20:13:08;4.22;;;2.47;;
30307;SDS011;17114;52.314;8.910;2023-04-01T20:16:08;4.07;;;2.70;;
30307;SDS011;17114;52.314;8.910;2023-04-01T20:18:39;3.22;;;2.90;;
30307;SDS011;17114;52.314;8.910;2023-04-01T20:24:04;4.13;;;2.67;;
30307;SDS011;17114;52.314;8.910;2023-04-01T20:26:41;3.25;;;2.70;;
30307;SDS011;17114;52.314;8.910;2023-04-01T20:40:33;4.05;;;2.63;;
30307;SDS011;17114;52.314;8.910;2023-04-01T20:46:14;5.15;;;2.38;;
30307;SDS011;17114;52.314;8.910;2023-04-01T20:51:22;4.43;;;2.97;;
30307;SDS011;17114;52.314;8.910;2023-04-01T21:02:30;8.05;;;3.40;;
30307;SDS011;17114;52.314;8.910;2023-04-01T21:05:26;6.32;;;3.75;;
30307;SDS011;17114;52.314;8.910;2023-04-01T21:10:40;5.20;;;3.35;;
30307;SDS011;17114;52.314;8.910;2023-04-01T21:15:53;9.25;;;3.83;;
30307;SDS011;17114;52.314;8.910;2023-04-01T21:24:39;4.57;;;3.70;;
30307;SDS011;17114;52.314;8.910;2023-04-01T21:30:01;6.18;;;3.97;;
30307;SDS011;17114;52.314;8.910;2023-04-01T21:32:39;8.05;;;4.38;;
30307;SDS011;17114;52.314;8.910;2023-04-01T21:41:32;5.55;;;3.60;;
30307;SDS011;17114;52.314;8.910;2023-04-01T21:47:46;6.85;;;4.03;;
30307;SDS011;17114;52.314;8.910;2023-04-01T21:56:21;8.75;;;4.57;;
30307;SDS011;17114;52.314;8.910;2023-04-01T22:07:45;7.40;;;4.57;;
30307;SDS011;17114;52.314;8.910;2023-04-01T22:13:13;10.48;;;5.53;;
30307;SDS011;17114;52.314;8.910;2023-04-01T22:15:55;7.30;;;5.10;;
30307;SDS011;17114;52.314;8.910;2023-04-01T22:18:49;5.50;;;4.25;;
30307;SDS011;17114;52.314;8.910;2023-04-01T22:21:39;8.15;;;5.30;;
30307;SDS011;17114;52.314;8.910;2023-04-01T22:24:36;8.52;;;4.80;;
30307;SDS011;17114;52.314;8.910;2023-04-01T22:32:58;7.28;;;5.25;;
30307;SDS011;17114;52.314;8.910;2023-04-01T22:37:58;8.75;;;5.45;;
30307;SDS011;17114;52.314;8.910;2023-04-01T22:40:48;12.02;;;5.88;;
30307;SDS011;17114;52.314;8.910;2023-04-01T22:43:38;11.10;;;5.72;;
30307;SDS011;17114;52.314;8.910;2023-04-01T22:51:43;10.30;;;5.25;;
30307;SDS011;17114;52.314;8.910;2023-04-01T22:58:03;8.00;;;4.70;;
30307;SDS011;17114;52.314;8.910;2023-04-01T23:06:04;8.13;;;5.28;;
30307;SDS011;17114;52.314;8.910;2023-04-01T23:11:27;8.55;;;4.57;;
30307;SDS011;17114;52.314;8.910;2023-04-01T23:14:13;7.93;;;5.18;;
30307;SDS011;17114;52.314;8.910;2023-04-01T23:19:57;10.18;;;4.82;;
30307;SDS011;17114;52.314;8.910;2023-04-01T23:22:49;8.88;;;4.68;;
30307;SDS011;17114;52.314;8.910;2023-04-01T23:36:44;13.98;;;5.50;;
30307;SDS011;17114;52.314;8.910;2023-04-01T23:41:50;8.00;;;5.30;;
30307;SDS011;17114;52.314;8.910;2023-04-01T23:44:20;10.82;;;5.43;;
30307;SDS011;17114;52.314;8.910;2023-04-01T23:46:50;8.75;;;5.32;;
30307;SDS011;17114;52.314;8.910;2023-04-01T23:49:19;10.90;;;5.57;;
30307;SDS011;17114;52.314;8.910;2023-04-01T23:51:52;10.93;;;5.82;;
30307;SDS011;17114;52.314;8.910;2023-04-01T23:54:32;8.73;;;5.07;;
30307;SDS011;17114;52.314;8.910;2023-04-01T23:57:09;12.05;;;6.03;;
30307;SDS011;17114;52.314;8.910;2023-04-01T23:59:39;13.57;;;6.05;;
